sensor_id;sensor_type;location;lat;lon;timestamp;pressure;altitude;pressure_sealevel;temperature;humidity
20027;BME280;10174;42.688;23.344;2023-06-26T00:00:29;95127.56;;;19.85;97.79
20027;BME280;10174;42.688;23.344;2023-06-26T00:02:55;95091.50;;;19.71;98.40
20027;BME280;10174;42.688;23.344;2023-06-26T00:05:20;95109.34;;;19.68;98.27
20027;BME280;10174;42.688;23.344;2023-06-26T00:07:45;95090.63;;;19.58;98.49
20027;BME280;10174;42.688;23.344;2023-06-26T00:10:11;95112.19;;;19.72;99.09
20027;BME280;10174;42.688;23.344;2023-06-26T00:12:36;95113.00;;;19.72;99.09
20027;BME280;10174;42.688;23.344;2023-06-26T00:15:02;95059.47;;;19.29;99.13
20027;BME280;10174;42.688;23.344;2023-06-26T00:17:27;95102.44;;;19.62;99.06
20027;BME280;10174;42.688;23.344;2023-06-26T00:19:53;95106.31;;;19.61;99.58
20027;BME280;10174;42.688;23.344;2023-06-26T00:22:18;95107.25;;;19.65;99.11
20027;BME280;10174;42.688;23.344;2023-06-26T00:24:44;95113.06;;;19.55;99.53
20027;BME280;10174;42.688;23.344;2023-06-26T00:27:12;95122.66;;;19.61;99.93
20027;BME280;10174;42.688;23.344;2023-06-26T00:29:37;95116.25;;;19.57;99.55
20027;BME280;10174;42.688;23.344;2023-06-26T00:32:04;95027.66;;;19.03;99.65
20027;BME280;10174;42.688;23.344;2023-06-26T00:34:29;95106.78;;;19.63;99.30
20027;BME280;10174;42.688;23.344;2023-06-26T00:36:55;95117.22;;;19.61;99.66
20027;BME280;10174;42.688;23.344;2023-06-26T00:39:20;95099.41;;;19.64;99.93
20027;BME280;10174;42.688;23.344;2023-06-26T00:41:45;95105.66;;;19.64;99.36
20027;BME280;10174;42.688;23.344;2023-06-26T00:44:11;95114.13;;;19.71;99.45
20027;BME280;10174;42.688;23.344;2023-06-26T00:46:36;95085.81;;;19.55;99.12
20027;BME280;10174;42.688;23.344;2023-06-26T00:49:02;95102.63;;;19.57;99.54
20027;BME280;10174;42.688;23.344;2023-06-26T00:51:29;95088.41;;;19.43;100.00
20027;BME280;10174;42.688;23.344;2023-06-26T00:53:55;94996.94;;;18.77;100.00
20027;BME280;10174;42.688;23.344;2023-06-26T00:56:21;95085.06;;;19.28;100.00
20027;BME280;10174;42.688;23.344;2023-06-26T00:58:47;94986.72;;;18.74;100.00
20027;BME280;10174;42.688;23.344;2023-06-26T01:01:13;95092.41;;;19.45;100.00
20027;BME280;10174;42.688;23.344;2023-06-26T01:03:46;95094.50;;;19.39;100.00
20027;BME280;10174;42.688;23.344;2023-06-26T01:06:17;95094.50;;;19.39;100.00
20027;BME280;10174;42.688;23.344;2023-06-26T01:08:44;95080.13;;;19.30;100.00
20027;BME280;10174;42.688;23.344;2023-06-26T01:11:11;95087.16;;;19.31;100.00
20027;BME280;10174;42.688;23.344;2023-06-26T01:13:38;95071.19;;;19.21;100.00
20027;BME280;10174;42.688;23.344;2023-06-26T01:16:05;95079.16;;;19.26;100.00
20027;BME280;10174;42.688;23.344;2023-06-26T01:18:32;95000.00;;;18.75;100.00
20027;BME280;10174;42.688;23.344;2023-06-26T01:20:58;95067.97;;;19.19;100.00
20027;BME280;10174;42.688;23.344;2023-06-26T01:23:45;95084.28;;;19.19;100.00
20027;BME280;10174;42.688;23.344;2023-06-26T01:26:19;95084.94;;;19.16;100.00
20027;BME280;10174;42.688;23.344;2023-06-26T01:28:46;95083.34;;;19.15;100.00
20027;BME280;10174;42.688;23.344;2023-06-26T01:31:12;95065.41;;;19.14;100.00
20027;BME280;10174;42.688;23.344;2023-06-26T01:33:40;95051.50;;;18.98;100.00
20027;BME280;10174;42.688;23.344;2023-06-26T01:36:06;95069.09;;;19.18;100.00
20027;BME280;10174;42.688;23.344;2023-06-26T01:38:31;95040.28;;;18.99;100.00
20027;BME280;10174;42.688;23.344;2023-06-26T01:40:57;95071.00;;;19.09;100.00
20027;BME280;10174;42.688;23.344;2023-06-26T01:46:07;95067.50;;;18.99;100.00
20027;BME280;10174;42.688;23.344;2023-06-26T01:48:40;95060.63;;;18.93;100.00
20027;BME280;10174;42.688;23.344;2023-06-26T01:51:11;95055.69;;;18.86;100.00
20027;BME280;10174;42.688;23.344;2023-06-26T01:53:41;95062.88;;;18.91;100.00
20027;BME280;10174;42.688;23.344;2023-06-26T01:56:13;95055.06;;;18.90;100.00
20027;BME280;10174;42.688;23.344;2023-06-26T01:58:41;95039.50;;;18.73;100.00
20027;BME280;10174;42.688;23.344;2023-06-26T02:01:08;95029.59;;;18.59;100.00
20027;BME280;10174;42.688;23.344;2023-06-26T02:03:34;95051.03;;;18.78;100.00
20027;BME280;10174;42.688;23.344;2023-06-26T02:05:59;94952.34;;;18.08;100.00
20027;BME280;10174;42.688;23.344;2023-06-26T02:08:24;95054.41;;;18.75;100.00
20027;BME280;10174;42.688;23.344;2023-06-26T02:10:50;95068.63;;;18.81;100.00
20027;BME280;10174;42.688;23.344;2023-06-26T02:13:15;95051.81;;;18.70;100.00
20027;BME280;10174;42.688;23.344;2023-06-26T02:15:40;95075.34;;;18.83;100.00
20027;BME280;10174;42.688;23.344;2023-06-26T02:18:06;95056.16;;;18.89;100.00
20027;BME280;10174;42.688;23.344;2023-06-26T02:20:31;95074.06;;;18.81;100.00
20027;BME280;10174;42.688;23.344;2023-06-26T02:22:58;95073.28;;;18.72;100.00
20027;BME280;10174;42.688;23.344;2023-06-26T02:25:24;95066.25;;;18.71;100.00
20027;BME280;10174;42.688;23.344;2023-06-26T02:27:49;95068.97;;;18.71;100.00
20027;BME280;10174;42.688;23.344;2023-06-26T02:30:15;95066.06;;;18.76;100.00
20027;BME280;10174;42.688;23.344;2023-06-26T02:32:40;95076.00;;;18.72;100.00
20027;BME280;10174;42.688;23.344;2023-06-26T02:35:06;95076.50;;;18.74;100.00
20027;BME280;10174;42.688;23.344;2023-06-26T02:37:31;95043.66;;;18.61;100.00
20027;BME280;10174;42.688;23.344;2023-06-26T02:39:57;95075.34;;;18.75;100.00
20027;BME280;10174;42.688;23.344;2023-06-26T02:42:22;95078.88;;;18.84;100.00
20027;BME280;10174;42.688;23.344;2023-06-26T02:44:47;95011.84;;;18.36;100.00
20027;BME280;10174;42.688;23.344;2023-06-26T02:47:14;95035.34;;;18.49;100.00
20027;BME280;10174;42.688;23.344;2023-06-26T02:49:39;95066.56;;;18.69;100.00
20027;BME280;10174;42.688;23.344;2023-06-26T02:52:04;95069.59;;;18.67;100.00
20027;BME280;10174;42.688;23.344;2023-06-26T02:54:30;95069.75;;;18.71;100.00
20027;BME280;10174;42.688;23.344;2023-06-26T02:56:55;95064.47;;;18.48;100.00
20027;BME280;10174;42.688;23.344;2023-06-26T02:59:20;95075.81;;;18.50;100.00
20027;BME280;10174;42.688;23.344;2023-06-26T03:01:46;95036.00;;;18.28;100.00
20027;BME280;10174;42.688;23.344;2023-06-26T03:04:11;95022.56;;;18.23;100.00
20027;BME280;10174;42.688;23.344;2023-06-26T03:06:37;95081.44;;;18.54;100.00
20027;BME280;10174;42.688;23.344;2023-06-26T03:09:02;95069.25;;;18.43;100.00
20027;BME280;10174;42.688;23.344;2023-06-26T03:11:28;95036.28;;;18.18;100.00
20027;BME280;10174;42.688;23.344;2023-06-26T03:13:53;95055.66;;;18.25;100.00
20027;BME280;10174;42.688;23.344;2023-06-26T03:16:19;95071.81;;;18.30;100.00
20027;BME280;10174;42.688;23.344;2023-06-26T03:18:44;95050.06;;;18.22;100.00
20027;BME280;10174;42.688;23.344;2023-06-26T03:21:10;95072.31;;;18.50;100.00
20027;BME280;10174;42.688;23.344;2023-06-26T03:23:35;95076.94;;;18.41;100.00
20027;BME280;10174;42.688;23.344;2023-06-26T03:26:01;95077.13;;;18.53;100.00
20027;BME280;10174;42.688;23.344;2023-06-26T03:28:26;95068.00;;;18.40;100.00
20027;BME280;10174;42.688;23.344;2023-06-26T03:30:51;95079.97;;;18.57;100.00
20027;BME280;10174;42.688;23.344;2023-06-26T03:33:17;95074.41;;;18.53;100.00
20027;BME280;10174;42.688;23.344;2023-06-26T03:35:42;95076.31;;;18.61;100.00
20027;BME280;10174;42.688;23.344;2023-06-26T03:38:08;95085.28;;;18.53;100.00
20027;BME280;10174;42.688;23.344;2023-06-26T03:40:33;95049.28;;;18.30;100.00
20027;BME280;10174;42.688;23.344;2023-06-26T03:42:59;95088.63;;;18.50;100.00
20027;BME280;10174;42.688;23.344;2023-06-26T03:45:24;95088.28;;;18.43;100.00
20027;BME280;10174;42.688;23.344;2023-06-26T03:47:49;95081.91;;;18.39;100.00
20027;BME280;10174;42.688;23.344;2023-06-26T03:50:18;95084.63;;;18.39;100.00
20027;BME280;10174;42.688;23.344;2023-06-26T03:52:44;95079.19;;;18.39;100.00
20027;BME280;10174;42.688;23.344;2023-06-26T03:55:10;95088.31;;;18.51;100.00
20027;BME280;10174;42.688;23.344;2023-06-26T03:57:36;95074.53;;;18.57;100.00
20027;BME280;10174;42.688;23.344;2023-06-26T04:00:02;95068.97;;;18.53;100.00
20027;BME280;10174;42.688;23.344;2023-06-26T04:02:31;95045.75;;;18.56;100.00
20027;BME280;10174;42.688;23.344;2023-06-26T04:04:56;95071.22;;;18.86;100.00
20027;BME280;10174;42.688;23.344;2023-06-26T04:07:21;95069.59;;;19.02;100.00
20027;BME280;10174;42.688;23.344;2023-06-26T04:09:47;95075.22;;;18.97;99.78
20027;BME280;10174;42.688;23.344;2023-06-26T04:12:13;95054.41;;;18.93;100.00
20027;BME280;10174;42.688;23.344;2023-06-26T04:14:38;95075.50;;;19.13;99.47
20027;BME280;10174;42.688;23.344;2023-06-26T04:17:04;95076.75;;;19.25;97.43
20027;BME280;10174;42.688;23.344;2023-06-26T04:19:29;95007.00;;;18.67;97.56
20027;BME280;10174;42.688;23.344;2023-06-26T04:21:55;95083.00;;;19.25;97.13
20027;BME280;10174;42.688;23.344;2023-06-26T04:24:21;95064.47;;;19.10;97.04
20027;BME280;10174;42.688;23.344;2023-06-26T04:26:46;95082.34;;;19.28;96.86
20027;BME280;10174;42.688;23.344;2023-06-26T04:29:12;95081.75;;;19.14;97.55
20027;BME280;10174;42.688;23.344;2023-06-26T04:31:38;95075.16;;;19.15;97.38
20027;BME280;10174;42.688;23.344;2023-06-26T04:34:04;95055.84;;;18.90;96.96
20027;BME280;10174;42.688;23.344;2023-06-26T04:36:29;95076.31;;;18.96;97.76
20027;BME280;10174;42.688;23.344;2023-06-26T04:38:56;95091.81;;;19.13;97.75
20027;BME280;10174;42.688;23.344;2023-06-26T04:41:21;95071.66;;;19.05;97.17
20027;BME280;10174;42.688;23.344;2023-06-26T04:43:47;95086.38;;;19.22;97.20
20027;BME280;10174;42.688;23.344;2023-06-26T04:46:12;95079.19;;;19.09;96.91
20027;BME280;10174;42.688;23.344;2023-06-26T04:48:37;95091.81;;;19.31;96.95
20027;BME280;10174;42.688;23.344;2023-06-26T04:51:03;95081.56;;;19.28;96.51
20027;BME280;10174;42.688;23.344;2023-06-26T04:53:29;95090.06;;;19.26;96.27
20027;BME280;10174;42.688;23.344;2023-06-26T04:55:54;95086.06;;;19.23;96.46
20027;BME280;10174;42.688;23.344;2023-06-26T04:58:20;95013.59;;;18.66;97.15
20027;BME280;10174;42.688;23.344;2023-06-26T05:00:45;95082.06;;;19.21;97.58
20027;BME280;10174;42.688;23.344;2023-06-26T05:03:15;95091.06;;;19.60;94.99
20027;BME280;10174;42.688;23.344;2023-06-26T05:05:42;95101.50;;;19.67;94.41
20027;BME280;10174;42.688;23.344;2023-06-26T05:08:23;95095.13;;;19.92;92.94
20027;BME280;10174;42.688;23.344;2023-06-26T05:10:49;95065.22;;;19.84;92.86
20027;BME280;10174;42.688;23.344;2023-06-26T05:13:15;95107.50;;;19.90;92.65
20027;BME280;10174;42.688;23.344;2023-06-26T05:15:43;95109.75;;;19.88;93.31
20027;BME280;10174;42.688;23.344;2023-06-26T05:18:09;95112.47;;;19.88;93.08
20027;BME280;10174;42.688;23.344;2023-06-26T05:20:35;95109.94;;;19.74;93.73
20027;BME280;10174;42.688;23.344;2023-06-26T05:23:04;95120.06;;;19.82;92.74
20027;BME280;10174;42.688;23.344;2023-06-26T05:25:30;95114.19;;;20.01;92.59
20027;BME280;10174;42.688;23.344;2023-06-26T05:27:57;95116.88;;;20.10;91.59
20027;BME280;10174;42.688;23.344;2023-06-26T05:30:24;95109.97;;;20.13;90.40
20027;BME280;10174;42.688;23.344;2023-06-26T05:32:51;95094.44;;;20.04;90.79
20027;BME280;10174;42.688;23.344;2023-06-26T05:35:17;95112.91;;;19.99;91.21
20027;BME280;10174;42.688;23.344;2023-06-26T05:37:43;95099.19;;;20.16;90.10
20027;BME280;10174;42.688;23.344;2023-06-26T05:40:09;95103.66;;;20.21;90.30
20027;BME280;10174;42.688;23.344;2023-06-26T05:42:35;95004.59;;;19.87;88.82
20027;BME280;10174;42.688;23.344;2023-06-26T05:45:00;95078.88;;;20.35;88.65
20027;BME280;10174;42.688;23.344;2023-06-26T05:47:25;95104.34;;;20.69;87.75
20027;BME280;10174;42.688;23.344;2023-06-26T05:49:51;95114.59;;;20.72;86.99
20027;BME280;10174;42.688;23.344;2023-06-26T05:52:16;95104.78;;;20.92;86.67
20027;BME280;10174;42.688;23.344;2023-06-26T05:54:42;95106.19;;;20.98;86.02
20027;BME280;10174;42.688;23.344;2023-06-26T05:57:08;95106.06;;;20.73;86.86
20027;BME280;10174;42.688;23.344;2023-06-26T05:59:36;95045.88;;;20.27;86.50
20027;BME280;10174;42.688;23.344;2023-06-26T06:02:02;95116.53;;;20.41;87.58
20027;BME280;10174;42.688;23.344;2023-06-26T06:04:27;95087.59;;;20.28;87.13
20027;BME280;10174;42.688;23.344;2023-06-26T06:06:52;95102.44;;;20.39;87.13
20027;BME280;10174;42.688;23.344;2023-06-26T06:09:18;95016.13;;;20.14;85.83
20027;BME280;10174;42.688;23.344;2023-06-26T06:11:43;95116.97;;;20.94;85.22
20027;BME280;10174;42.688;23.344;2023-06-26T06:14:09;95108.47;;;20.75;85.84
20027;BME280;10174;42.688;23.344;2023-06-26T06:16:34;95063.59;;;20.63;85.27
20027;BME280;10174;42.688;23.344;2023-06-26T06:18:59;95079.03;;;20.80;84.32
20027;BME280;10174;42.688;23.344;2023-06-26T06:21:25;95020.56;;;20.69;83.37
20027;BME280;10174;42.688;23.344;2023-06-26T06:23:50;95015.94;;;20.82;82.85
20027;BME280;10174;42.688;23.344;2023-06-26T06:26:16;95105.44;;;21.43;82.42
20027;BME280;10174;42.688;23.344;2023-06-26T06:28:41;95025.47;;;21.09;80.99
20027;BME280;10174;42.688;23.344;2023-06-26T06:31:06;95100.53;;;21.70;80.38
20027;BME280;10174;42.688;23.344;2023-06-26T06:33:32;95102.78;;;21.56;81.17
20027;BME280;10174;42.688;23.344;2023-06-26T06:35:57;95117.22;;;21.23;82.16
20027;BME280;10174;42.688;23.344;2023-06-26T06:38:23;95105.19;;;21.36;81.74
20027;BME280;10174;42.688;23.344;2023-06-26T06:40:48;95096.22;;;21.48;81.25
20027;BME280;10174;42.688;23.344;2023-06-26T06:43:14;95059.91;;;21.35;80.15
20027;BME280;10174;42.688;23.344;2023-06-26T06:45:39;95097.59;;;22.00;78.29
20027;BME280;10174;42.688;23.344;2023-06-26T06:48:05;95100.09;;;22.17;76.99
20027;BME280;10174;42.688;23.344;2023-06-26T06:50:30;95106.28;;;22.39;77.10
20027;BME280;10174;42.688;23.344;2023-06-26T06:52:56;95066.59;;;21.96;76.41
20027;BME280;10174;42.688;23.344;2023-06-26T06:55:21;95077.06;;;21.94;75.92
20027;BME280;10174;42.688;23.344;2023-06-26T06:57:47;95109.44;;;22.16;75.26
20027;BME280;10174;42.688;23.344;2023-06-26T07:00:13;95095.44;;;22.42;74.29
20027;BME280;10174;42.688;23.344;2023-06-26T07:02:43;95094.38;;;22.59;72.49
20027;BME280;10174;42.688;23.344;2023-06-26T07:05:10;95098.38;;;22.90;71.78
20027;BME280;10174;42.688;23.344;2023-06-26T07:07:36;95098.38;;;22.90;71.67
20027;BME280;10174;42.688;23.344;2023-06-26T07:10:07;95107.28;;;23.00;71.42
20027;BME280;10174;42.688;23.344;2023-06-26T07:12:33;95076.00;;;22.72;71.24
20027;BME280;10174;42.688;23.344;2023-06-26T07:15:00;95092.31;;;22.56;72.49
20027;BME280;10174;42.688;23.344;2023-06-26T07:17:26;95097.22;;;22.51;72.23
20027;BME280;10174;42.688;23.344;2023-06-26T07:19:51;95096.59;;;22.82;72.06
20027;BME280;10174;42.688;23.344;2023-06-26T07:22:17;95013.34;;;22.42;70.86
20027;BME280;10174;42.688;23.344;2023-06-26T07:24:45;95085.09;;;23.17;71.21
20027;BME280;10174;42.688;23.344;2023-06-26T07:27:10;95102.94;;;22.99;71.24
20027;BME280;10174;42.688;23.344;2023-06-26T07:29:36;95095.22;;;22.88;71.97
20027;BME280;10174;42.688;23.344;2023-06-26T07:32:01;95095.69;;;22.78;71.83
20027;BME280;10174;42.688;23.344;2023-06-26T07:34:26;95088.16;;;22.75;73.21
20027;BME280;10174;42.688;23.344;2023-06-26T07:36:52;95099.94;;;23.04;72.14
20027;BME280;10174;42.688;23.344;2023-06-26T07:39:18;95069.13;;;23.07;71.09
20027;BME280;10174;42.688;23.344;2023-06-26T07:41:43;95092.03;;;22.86;70.54
20027;BME280;10174;42.688;23.344;2023-06-26T07:44:09;95080.88;;;22.79;68.12
20027;BME280;10174;42.688;23.344;2023-06-26T07:46:34;95063.72;;;22.54;68.51
20027;BME280;10174;42.688;23.344;2023-06-26T07:49:01;95090.03;;;22.99;69.38
20027;BME280;10174;42.688;23.344;2023-06-26T07:51:26;95061.84;;;23.27;66.68
20027;BME280;10174;42.688;23.344;2023-06-26T07:53:51;95072.19;;;23.78;67.28
20027;BME280;10174;42.688;23.344;2023-06-26T07:56:17;95091.41;;;24.10;64.09
20027;BME280;10174;42.688;23.344;2023-06-26T07:58:43;95091.50;;;24.49;62.66
20027;BME280;10174;42.688;23.344;2023-06-26T08:01:08;95070.91;;;24.75;62.74
20027;BME280;10174;42.688;23.344;2023-06-26T08:03:33;95085.34;;;24.36;63.60
20027;BME280;10174;42.688;23.344;2023-06-26T08:05:59;95091.16;;;23.99;63.69
20027;BME280;10174;42.688;23.344;2023-06-26T08:08:24;95094.91;;;23.62;64.83
20027;BME280;10174;42.688;23.344;2023-06-26T08:10:50;95091.41;;;24.10;63.55
20027;BME280;10174;42.688;23.344;2023-06-26T08:13:15;95097.84;;;24.33;61.94
20027;BME280;10174;42.688;23.344;2023-06-26T08:15:40;95089.72;;;24.05;62.60
20027;BME280;10174;42.688;23.344;2023-06-26T08:18:06;95073.78;;;24.11;64.13
20027;BME280;10174;42.688;23.344;2023-06-26T08:20:31;95007.00;;;23.55;64.34
20027;BME280;10174;42.688;23.344;2023-06-26T08:22:57;95057.59;;;23.58;65.65
20027;BME280;10174;42.688;23.344;2023-06-26T08:25:22;95065.06;;;23.45;66.12
20027;BME280;10174;42.688;23.344;2023-06-26T08:27:47;95043.06;;;23.57;66.56
20027;BME280;10174;42.688;23.344;2023-06-26T08:30:13;95084.66;;;24.94;62.17
20027;BME280;10174;42.688;23.344;2023-06-26T08:32:39;95091.94;;;24.67;62.08
20027;BME280;10174;42.688;23.344;2023-06-26T08:35:06;95097.88;;;24.17;62.20
20027;BME280;10174;42.688;23.344;2023-06-26T08:37:32;95063.97;;;23.78;63.84
20027;BME280;10174;42.688;23.344;2023-06-26T08:40:00;95098.66;;;24.18;63.39
20027;BME280;10174;42.688;23.344;2023-06-26T08:42:26;95092.75;;;25.06;60.73
20027;BME280;10174;42.688;23.344;2023-06-26T08:44:51;95080.69;;;26.20;56.54
20027;BME280;10174;42.688;23.344;2023-06-26T08:47:19;95084.25;;;27.04;53.84
20027;BME280;10174;42.688;23.344;2023-06-26T08:50:07;95078.53;;;28.43;48.72
20027;BME280;10174;42.688;23.344;2023-06-26T08:52:45;95086.22;;;26.73;51.48
20027;BME280;10174;42.688;23.344;2023-06-26T08:55:15;95077.72;;;26.05;55.22
20027;BME280;10174;42.688;23.344;2023-06-26T08:57:41;95077.00;;;26.08;54.15
20027;BME280;10174;42.688;23.344;2023-06-26T09:00:07;95079.34;;;25.87;55.01
20027;BME280;10174;42.688;23.344;2023-06-26T09:02:35;95075.25;;;27.41;51.04
20027;BME280;10174;42.688;23.344;2023-06-26T09:05:02;95076.50;;;28.37;47.58
20027;BME280;10174;42.688;23.344;2023-06-26T09:07:28;95053.47;;;27.70;48.71
20027;BME280;10174;42.688;23.344;2023-06-26T09:09:53;95069.63;;;29.71;44.69
20027;BME280;10174;42.688;23.344;2023-06-26T09:12:20;95082.34;;;30.11;42.75
20027;BME280;10174;42.688;23.344;2023-06-26T09:14:47;95078.28;;;28.11;46.43
20027;BME280;10174;42.688;23.344;2023-06-26T09:17:13;95059.88;;;27.06;51.33
20027;BME280;10174;42.688;23.344;2023-06-26T09:19:38;95075.53;;;26.98;51.80
20027;BME280;10174;42.688;23.344;2023-06-26T09:22:03;95081.56;;;28.24;47.77
20027;BME280;10174;42.688;23.344;2023-06-26T09:24:30;95029.22;;;27.94;47.56
20027;BME280;10174;42.688;23.344;2023-06-26T09:26:55;95071.09;;;29.25;45.50
20027;BME280;10174;42.688;23.344;2023-06-26T09:29:20;95066.50;;;30.62;43.94
20027;BME280;10174;42.688;23.344;2023-06-26T09:31:46;95029.31;;;32.15;39.03
20027;BME280;10174;42.688;23.344;2023-06-26T09:34:11;95001.81;;;31.08;40.34
20027;BME280;10174;42.688;23.344;2023-06-26T09:36:37;95066.50;;;30.08;42.86
20027;BME280;10174;42.688;23.344;2023-06-26T09:39:04;95068.19;;;26.79;49.19
20027;BME280;10174;42.688;23.344;2023-06-26T09:41:32;95067.00;;;25.54;54.01
20027;BME280;10174;42.688;23.344;2023-06-26T09:44:01;95072.81;;;24.90;55.12
20027;BME280;10174;42.688;23.344;2023-06-26T09:46:28;95061.16;;;24.58;56.89
20027;BME280;10174;42.688;23.344;2023-06-26T09:49:04;95067.91;;;25.62;53.62
20027;BME280;10174;42.688;23.344;2023-06-26T09:51:34;95067.00;;;25.15;54.38
20027;BME280;10174;42.688;23.344;2023-06-26T09:54:00;95060.41;;;26.85;50.85
20027;BME280;10174;42.688;23.344;2023-06-26T09:56:27;95064.44;;;26.38;51.30
20027;BME280;10174;42.688;23.344;2023-06-26T09:58:55;95075.44;;;25.88;53.49
20027;BME280;10174;42.688;23.344;2023-06-26T10:01:26;95079.88;;;24.71;55.17
20027;BME280;10174;42.688;23.344;2023-06-26T10:03:52;95065.19;;;24.28;55.82
20027;BME280;10174;42.688;23.344;2023-06-26T10:06:37;95067.31;;;24.19;56.50
20027;BME280;10174;42.688;23.344;2023-06-26T10:09:03;95080.03;;;24.27;56.16
20027;BME280;10174;42.688;23.344;2023-06-26T10:11:37;95087.78;;;24.06;57.65
20027;BME280;10174;42.688;23.344;2023-06-26T10:14:07;95075.13;;;23.85;57.19
20027;BME280;10174;42.688;23.344;2023-06-26T10:16:34;95067.34;;;23.87;57.21
20027;BME280;10174;42.688;23.344;2023-06-26T10:19:04;95079.63;;;24.09;57.93
20027;BME280;10174;42.688;23.344;2023-06-26T10:21:34;95076.31;;;24.35;57.00
20027;BME280;10174;42.688;23.344;2023-06-26T10:24:00;95073.47;;;24.48;56.57
20027;BME280;10174;42.688;23.344;2023-06-26T10:26:28;94996.84;;;23.72;56.34
20027;BME280;10174;42.688;23.344;2023-06-26T10:28:54;94940.69;;;23.50;55.28
20027;BME280;10174;42.688;23.344;2023-06-26T10:31:23;95059.91;;;24.04;55.06
20027;BME280;10174;42.688;23.344;2023-06-26T10:33:51;95071.59;;;24.00;54.92
20027;BME280;10174;42.688;23.344;2023-06-26T10:36:19;95082.72;;;24.08;55.34
20027;BME280;10174;42.688;23.344;2023-06-26T10:38:49;95087.69;;;24.02;53.94
20027;BME280;10174;42.688;23.344;2023-06-26T10:41:19;95084.59;;;24.04;53.78
20027;BME280;10174;42.688;23.344;2023-06-26T10:43:45;95072.66;;;23.96;54.33
20027;BME280;10174;42.688;23.344;2023-06-26T10:46:15;95072.47;;;24.05;53.38
20027;BME280;10174;42.688;23.344;2023-06-26T10:48:59;95051.88;;;23.95;53.55
20027;BME280;10174;42.688;23.344;2023-06-26T10:51:27;95052.03;;;24.02;53.95
20027;BME280;10174;42.688;23.344;2023-06-26T10:53:56;95060.78;;;24.08;55.32
20027;BME280;10174;42.688;23.344;2023-06-26T10:56:40;95064.28;;;24.24;57.12
20027;BME280;10174;42.688;23.344;2023-06-26T11:01:41;95031.94;;;24.49;56.38
20027;BME280;10174;42.688;23.344;2023-06-26T11:04:10;95063.34;;;24.52;55.47
20027;BME280;10174;42.688;23.344;2023-06-26T11:06:37;95057.09;;;24.35;54.35
20027;BME280;10174;42.688;23.344;2023-06-26T11:09:09;95052.72;;;24.66;53.67
20027;BME280;10174;42.688;23.344;2023-06-26T11:14:19;95054.03;;;24.92;53.08
20027;BME280;10174;42.688;23.344;2023-06-26T11:16:45;95053.88;;;24.85;54.02
20027;BME280;10174;42.688;23.344;2023-06-26T11:19:11;95053.41;;;25.41;52.38
20027;BME280;10174;42.688;23.344;2023-06-26T11:21:37;95039.56;;;25.57;51.20
20027;BME280;10174;42.688;23.344;2023-06-26T11:24:07;95039.53;;;25.34;51.47
20027;BME280;10174;42.688;23.344;2023-06-26T11:26:40;95041.47;;;25.76;50.61
20027;BME280;10174;42.688;23.344;2023-06-26T11:29:06;95053.19;;;25.96;51.53
20027;BME280;10174;42.688;23.344;2023-06-26T11:31:33;95048.66;;;25.85;51.64
20027;BME280;10174;42.688;23.344;2023-06-26T11:34:01;95040.38;;;25.58;51.23
20027;BME280;10174;42.688;23.344;2023-06-26T11:36:28;95045.13;;;25.61;50.72
20027;BME280;10174;42.688;23.344;2023-06-26T11:39:04;95050.53;;;25.15;50.90
20027;BME280;10174;42.688;23.344;2023-06-26T11:41:34;95027.56;;;25.03;50.88
20027;BME280;10174;42.688;23.344;2023-06-26T11:44:01;95045.97;;;25.22;51.71
20027;BME280;10174;42.688;23.344;2023-06-26T11:46:27;95045.47;;;24.78;51.86
20027;BME280;10174;42.688;23.344;2023-06-26T11:48:53;95035.59;;;24.73;52.95
20027;BME280;10174;42.688;23.344;2023-06-26T11:51:19;95025.75;;;24.92;52.86
20027;BME280;10174;42.688;23.344;2023-06-26T11:53:45;95036.09;;;24.98;52.57
20027;BME280;10174;42.688;23.344;2023-06-26T11:56:13;95038.75;;;25.57;51.26
20027;BME280;10174;42.688;23.344;2023-06-26T11:58:59;95030.00;;;25.74;50.47
20027;BME280;10174;42.688;23.344;2023-06-26T12:03:59;95034.47;;;25.83;50.35
20027;BME280;10174;42.688;23.344;2023-06-26T12:06:27;95020.00;;;25.86;50.37
20027;BME280;10174;42.688;23.344;2023-06-26T12:08:54;95022.22;;;25.53;51.12
20027;BME280;10174;42.688;23.344;2023-06-26T12:11:20;95038.38;;;25.35;49.97
20027;BME280;10174;42.688;23.344;2023-06-26T12:13:48;95021.72;;;25.28;50.38
20027;BME280;10174;42.688;23.344;2023-06-26T12:16:14;95010.31;;;25.46;49.65
20027;BME280;10174;42.688;23.344;2023-06-26T12:18:39;95029.72;;;25.80;50.42
20027;BME280;10174;42.688;23.344;2023-06-26T12:21:05;95034.41;;;25.79;49.57
20027;BME280;10174;42.688;23.344;2023-06-26T12:23:38;95030.69;;;25.68;48.95
20027;BME280;10174;42.688;23.344;2023-06-26T12:26:20;95037.34;;;25.67;50.33
20027;BME280;10174;42.688;23.344;2023-06-26T12:28:46;95043.75;;;25.74;48.65
20027;BME280;10174;42.688;23.344;2023-06-26T12:31:15;94954.25;;;25.07;49.00
20027;BME280;10174;42.688;23.344;2023-06-26T12:33:44;94941.97;;;25.01;49.46
20027;BME280;10174;42.688;23.344;2023-06-26T12:36:13;95029.97;;;25.48;50.22
20027;BME280;10174;42.688;23.344;2023-06-26T12:38:40;95016.81;;;25.18;51.00
20027;BME280;10174;42.688;23.344;2023-06-26T12:41:05;95013.09;;;25.06;50.84
20027;BME280;10174;42.688;23.344;2023-06-26T12:43:30;95023.91;;;25.19;51.42
20027;BME280;10174;42.688;23.344;2023-06-26T12:45:56;95033.97;;;25.11;51.63
20027;BME280;10174;42.688;23.344;2023-06-26T12:48:36;95018.16;;;25.04;51.57
20027;BME280;10174;42.688;23.344;2023-06-26T12:51:08;95013.81;;;25.03;52.28
20027;BME280;10174;42.688;23.344;2023-06-26T12:53:34;95017.44;;;25.07;52.66
20027;BME280;10174;42.688;23.344;2023-06-26T12:56:00;95034.28;;;25.06;53.60